createdAt,value
2023-04-10T00:00:01.014Z,4.50
2023-04-10T00:05:08.955Z,3.90
2023-04-10T00:10:14.855Z,3.90
2023-04-10T00:15:20.687Z,3.90
2023-04-10T00:20:26.749Z,3.70
2023-04-10T00:25:32.354Z,3.40
2023-04-10T00:30:37.949Z,3.50
2023-04-10T00:35:43.848Z,4.20
2023-04-10T00:40:49.365Z,4.60
2023-04-10T00:45:55.019Z,4.60
2023-04-10T00:51:01.161Z,4.40
2023-04-10T00:56:09.042Z,4.50
2023-04-10T01:01:14.887Z,3.80
2023-04-10T01:06:35.881Z,4.90
2023-04-10T01:11:54.296Z,4.70
2023-04-10T01:17:07.884Z,4.80
2023-04-10T01:22:17.769Z,4.10
2023-04-10T01:27:45.110Z,3.80
2023-04-10T01:32:53.780Z,3.80
2023-04-10T01:38:02.411Z,4.40
2023-04-10T01:43:12.147Z,3.60
2023-04-10T01:48:18.450Z,3.80
2023-04-10T01:53:25.246Z,4.50
2023-04-10T01:58:32.035Z,4.80
2023-04-10T02:03:38.030Z,4.20
2023-04-10T02:08:55.835Z,3.80
2023-04-10T02:14:06.206Z,3.70
2023-04-10T02:19:13.116Z,3.90
2023-04-10T02:24:19.826Z,4.70
2023-04-10T02:29:25.550Z,3.90
2023-04-10T02:34:31.206Z,4.90
2023-04-10T02:39:37.157Z,5.50
2023-04-10T02:44:43.029Z,5.10
2023-04-10T02:49:48.688Z,3.70
2023-04-10T02:54:54.669Z,6.30
2023-04-10T03:00:00.430Z,5.90
2023-04-10T03:05:08.398Z,5.00
2023-04-10T03:10:14.225Z,4.30
2023-04-10T03:15:20.298Z,4.40
2023-04-10T03:20:26.153Z,5.00
2023-04-10T03:25:33.969Z,5.90
2023-04-10T03:30:40.024Z,4.20
2023-04-10T03:35:47.036Z,4.70
2023-04-10T03:40:53.475Z,4.60
2023-04-10T03:45:59.391Z,4.40
2023-04-10T03:51:06.755Z,3.50
2023-04-10T03:56:12.453Z,4.00
2023-04-10T04:01:18.226Z,7.70
2023-04-10T04:06:24.089Z,5.00
2023-04-10T04:11:30.971Z,5.80
2023-04-10T04:16:36.837Z,4.30
2023-04-10T04:21:42.490Z,3.80
2023-04-10T04:26:48.499Z,4.30
2023-04-10T04:31:54.452Z,4.80
2023-04-10T04:37:00.830Z,4.10
2023-04-10T04:42:07.276Z,6.40
2023-04-10T04:47:13.016Z,5.00
2023-04-10T04:52:18.880Z,5.50
2023-04-10T04:57:24.649Z,4.20
2023-04-10T05:02:30.690Z,3.60
2023-04-10T05:07:36.764Z,3.50
2023-04-10T05:12:42.833Z,2.90
2023-04-10T05:17:50.642Z,3.40
2023-04-10T05:22:57.819Z,3.10
2023-04-10T05:28:03.437Z,2.70
2023-04-10T05:33:09.347Z,3.30
2023-04-10T05:38:14.973Z,4.70
2023-04-10T05:43:21.491Z,4.00
2023-04-10T05:48:28.408Z,3.70
2023-04-10T05:53:34.238Z,3.00
2023-04-10T05:58:39.930Z,3.30
2023-04-10T06:03:45.715Z,2.20
2023-04-10T06:08:51.994Z,3.10
2023-04-10T06:13:58.413Z,3.00
2023-04-10T06:19:04.214Z,2.50
2023-04-10T06:24:11.667Z,2.40
2023-04-10T06:29:18.562Z,4.30
2023-04-10T06:34:24.498Z,2.70
2023-04-10T06:39:30.282Z,24.50
2023-04-10T06:44:36.085Z,27.80
2023-04-10T06:49:41.852Z,16.80
2023-04-10T06:54:47.693Z,6.00
2023-04-10T06:59:53.340Z,5.00
2023-04-10T07:04:59.186Z,10.00
2023-04-10T07:10:06.026Z,7.10
2023-04-10T07:15:12.959Z,6.00
2023-04-10T07:20:18.900Z,4.90
2023-04-10T07:25:24.675Z,4.80
2023-04-10T07:30:30.622Z,5.30
2023-04-10T07:35:36.582Z,4.50
2023-04-10T07:40:42.342Z,3.90
2023-04-10T07:45:48.981Z,3.70
2023-04-10T07:50:55.694Z,4.70
2023-04-10T07:56:01.471Z,24.20
2023-04-10T08:01:08.313Z,7.20
2023-04-10T08:06:14.723Z,5.20
2023-04-10T08:11:28.804Z,4.10
2023-04-10T08:16:38.079Z,3.00
2023-04-10T08:21:44.032Z,3.80
2023-04-10T08:26:50.160Z,3.10
2023-04-10T08:31:56.093Z,2.50
2023-04-10T08:37:05.642Z,2.70
2023-04-10T08:42:11.367Z,3.10
2023-04-10T08:47:22.290Z,3.10
2023-04-10T08:52:31.287Z,3.90
2023-04-10T08:57:42.826Z,6.50
2023-04-10T09:02:54.845Z,2.80
2023-04-10T09:08:03.584Z,26.80
2023-04-10T09:13:09.477Z,31.40
2023-04-10T09:18:15.293Z,18.80
2023-04-10T09:23:24.094Z,6.50
2023-04-10T09:28:30.467Z,5.60
2023-04-10T09:33:36.310Z,4.10
2023-04-10T09:38:42.153Z,3.30
2023-04-10T09:43:48.310Z,2.00
2023-04-10T09:49:00.999Z,3.10
2023-04-10T09:54:07.103Z,2.40
2023-04-10T09:59:16.242Z,2.90
2023-04-10T10:04:22.285Z,2.70
2023-04-10T10:09:29.399Z,2.70
2023-04-10T10:14:38.346Z,3.30
2023-04-10T10:19:57.255Z,2.80
2023-04-10T10:25:04.602Z,2.60
2023-04-10T10:30:25.673Z,3.30
2023-04-10T10:35:36.208Z,3.10
2023-04-10T10:40:51.968Z,3.00
2023-04-10T10:46:04.383Z,2.50
2023-04-10T10:51:11.420Z,2.80
2023-04-10T10:56:38.581Z,2.70
2023-04-10T11:02:18.591Z,2.90
2023-04-10T11:08:02.516Z,2.80
2023-04-10T11:13:20.773Z,3.00
2023-04-10T11:19:14.211Z,2.90
2023-04-10T11:24:22.161Z,2.90
2023-04-10T11:29:37.209Z,2.70
2023-04-10T11:34:47.438Z,2.40
2023-04-10T11:40:07.408Z,2.50
2023-04-10T11:45:30.404Z,3.00
2023-04-10T11:50:36.359Z,3.20
2023-04-10T11:55:42.231Z,2.70
2023-04-10T12:00:55.733Z,3.80
2023-04-10T12:06:01.949Z,2.70
2023-04-10T12:11:10.022Z,3.00
2023-04-10T12:16:16.502Z,3.00
2023-04-10T12:21:22.953Z,2.90
2023-04-10T12:26:28.649Z,2.70
2023-04-10T12:31:37.199Z,2.50
2023-04-10T12:36:43.120Z,2.50
2023-04-10T12:41:48.957Z,2.50
2023-04-10T12:47:02.223Z,2.50
2023-04-10T12:52:07.873Z,3.30
2023-04-10T12:57:28.368Z,2.80
2023-04-10T13:02:34.505Z,2.90
2023-04-10T13:07:41.256Z,2.60
2023-04-10T13:12:48.379Z,2.50
2023-04-10T13:17:54.161Z,3.00
2023-04-10T13:22:59.918Z,2.90
2023-04-10T13:28:09.689Z,3.00
2023-04-10T13:33:15.643Z,2.40
2023-04-10T13:38:21.496Z,3.40
2023-04-10T13:43:27.280Z,2.70
2023-04-10T13:48:40.033Z,2.80
2023-04-10T13:53:46.536Z,2.60
2023-04-10T13:58:52.577Z,3.30
2023-04-10T14:03:58.588Z,2.50
2023-04-10T14:09:04.442Z,3.10
2023-04-10T14:14:10.325Z,2.70
2023-04-10T14:19:15.969Z,3.00
2023-04-10T14:24:21.845Z,2.80
2023-04-10T14:29:37.460Z,3.80
2023-04-10T14:34:46.571Z,2.90
2023-04-10T14:39:52.503Z,2.50
2023-04-10T14:44:58.384Z,2.30
2023-04-10T14:50:04.607Z,2.50
2023-04-10T14:55:12.049Z,2.30
2023-04-10T15:00:18.940Z,2.70
2023-04-10T15:05:25.677Z,2.70
2023-04-10T15:10:32.644Z,4.00
2023-04-10T15:15:38.674Z,3.40
2023-04-10T15:20:44.473Z,2.90
2023-04-10T15:25:50.190Z,2.50
2023-04-10T15:30:57.213Z,3.10
2023-04-10T15:36:03.561Z,2.80
2023-04-10T15:41:14.532Z,2.90
2023-04-10T15:46:20.375Z,2.60
2023-04-10T15:51:27.456Z,3.50
2023-04-10T15:56:33.985Z,3.30
2023-04-10T16:01:39.730Z,2.70
2023-04-10T16:06:45.686Z,3.00
2023-04-10T16:11:52.304Z,3.00
2023-04-10T16:16:58.153Z,3.30
2023-04-10T16:22:03.979Z,3.30
2023-04-10T16:27:09.731Z,4.30
2023-04-10T16:32:15.587Z,15.40
2023-04-10T16:37:21.386Z,17.60
2023-04-10T16:42:27.175Z,25.00
2023-04-10T16:47:33.107Z,7.90
2023-04-10T16:52:38.769Z,11.50
2023-04-10T16:57:44.943Z,30.20
2023-04-10T17:02:50.626Z,12.10
2023-04-10T17:07:57.374Z,6.70
2023-04-10T17:13:03.096Z,11.40
2023-04-10T17:18:09.116Z,6.00
2023-04-10T17:23:15.048Z,7.60
2023-04-10T17:28:21.019Z,4.50
2023-04-10T17:33:26.784Z,5.00
2023-04-10T17:38:32.605Z,3.10
2023-04-10T17:43:38.233Z,3.30
2023-04-10T17:48:44.172Z,4.60
2023-04-10T17:53:50.431Z,4.70
2023-04-10T17:58:56.630Z,5.80
2023-04-10T18:04:03.556Z,5.50
2023-04-10T18:09:09.528Z,5.40
2023-04-10T18:14:15.688Z,3.20
2023-04-10T18:19:21.418Z,6.30
2023-04-10T18:24:27.698Z,14.60
2023-04-10T18:29:34.135Z,13.20
2023-04-10T18:34:40.187Z,10.30
2023-04-10T18:39:46.195Z,9.80
2023-04-10T18:44:52.183Z,16.00
2023-04-10T18:49:58.140Z,8.30
2023-04-10T18:55:04.162Z,14.90
2023-04-10T19:00:13.545Z,5.70
2023-04-10T19:05:19.596Z,3.60
2023-04-10T19:10:25.480Z,3.80
2023-04-10T19:15:31.107Z,4.50
2023-04-10T19:20:48.921Z,4.60
2023-04-10T19:25:59.294Z,15.20
2023-04-10T19:31:05.117Z,6.60
2023-04-10T19:36:11.492Z,5.80
2023-04-10T19:41:18.025Z,6.80
2023-04-10T19:46:24.047Z,6.30
2023-04-10T19:51:29.988Z,5.90
2023-04-10T19:56:37.346Z,11.20
2023-04-10T20:01:43.140Z,9.10
2023-04-10T20:06:48.907Z,7.20
2023-04-10T20:11:54.610Z,6.80
2023-04-10T20:17:00.886Z,5.70
2023-04-10T20:22:07.393Z,6.80
2023-04-10T20:27:14.523Z,5.30
2023-04-10T20:32:20.204Z,4.60
2023-04-10T20:37:26.109Z,4.40
2023-04-10T20:42:31.796Z,5.10
2023-04-10T20:47:37.516Z,5.00
2023-04-10T20:52:43.475Z,5.60
2023-04-10T20:57:49.116Z,6.40
2023-04-10T21:02:54.981Z,6.20
2023-04-10T21:08:00.864Z,6.70
2023-04-10T21:13:06.539Z,5.90
2023-04-10T21:18:12.393Z,6.20
2023-04-10T21:23:18.088Z,6.40
2023-04-10T21:28:23.861Z,6.10
2023-04-10T21:33:29.631Z,6.80
2023-04-10T21:38:35.501Z,6.80
2023-04-10T21:43:42.737Z,5.50
2023-04-10T21:48:48.359Z,5.40
2023-04-10T21:53:54.229Z,4.90
2023-04-10T21:59:00.045Z,5.30
2023-04-10T22:04:06.477Z,5.40
2023-04-10T22:09:12.438Z,5.80
2023-04-10T22:14:20.065Z,6.90
2023-04-10T22:19:27.191Z,6.10
2023-04-10T22:24:35.256Z,5.50
2023-04-10T22:29:43.502Z,6.60
2023-04-10T22:34:53.612Z,6.50
2023-04-10T22:40:00.188Z,6.50
2023-04-10T22:45:08.048Z,5.40
2023-04-10T22:50:14.632Z,6.50
2023-04-10T22:55:21.037Z,5.20
2023-04-10T23:00:27.636Z,4.80
2023-04-10T23:05:33.539Z,5.10
2023-04-10T23:10:39.395Z,6.10
2023-04-10T23:15:50.874Z,5.90
2023-04-10T23:20:56.531Z,5.30
2023-04-10T23:26:02.602Z,5.50
2023-04-10T23:31:09.434Z,4.80
2023-04-10T23:36:15.159Z,5.10
2023-04-10T23:41:21.888Z,5.30
2023-04-10T23:46:27.829Z,6.20
2023-04-10T23:51:33.581Z,4.80
2023-04-10T23:56:39.425Z,4.60
